211  
UXUS97 KREV 231402  
SRGREV  
 
SOARING FORECAST  
NATIONAL WEATHER SERVICE - RENO NV  
700 AM PDT SAT JUN 23 2018  
 
THIS SOARING FORECAST IS FOR THE EASTERN SIERRA AND WESTERN NEVADA  
WITH SPECIFIC INDICES FOR THE GREATER RENO AREA.  
 
THIS FORECAST IS PREPARED DAILY BY 700 AM AND IS NOT UPDATED.  
 
FOR CURRENT FLIGHT CONDITIONS...FORECASTS...AND ADVISORIES...ACCESS  
YOUR LOCAL BRIEFING OUTLET OR FLIGHT SERVICE STATION.  
 
*******************************************************************  
FORECASTED LOCAL INDICES FOR RENO: TODAY YESTERDAY  
FORECASTED MAX TEMP AT RENO (DEG F)..... 92 95  
FORECASTED TRIGGER TEMPERATURE (DEG F).. 75 77  
EXCEEDED YESTERDAY BY 1055 AM PDT  
FORECASTED MAXIMUM ALTITUDE (FT MSL).... 14500 14200  
FORECASTED SOARING INDEX (FPM).......... 735 726  
FORECASTED K-INDEX.........VALID 18Z.... 17 0  
FORECASTED K-INDEX.........VALID 00Z.... 20 4  
FORECASTED LIFTED INDEX....VALID 18Z.... 7 3  
FORECASTED LIFTED INDEX....VALID 00Z.... 4 2  
 
AFTERNOON WINDS ALOFT FORECAST  
MSL (FT) WIND/TEMP  
9000 3508/+15  
10000 3309/+13  
12000 3212/+09  
14000 3215/+04  
16000 3319/+00  
18000 3429/-05  
24000 3227/-18  
30000 3341/-33  
34000 3244/-44  
39000 3240/-54  
 
SLIDE MOUNTAIN DATA:  
DATE TIME TEMP DEWPT RH WIND (MPH)  
(F) (F) | DIR SPEED GUST  
2018-06-23 05:20 52 36 42 | 000 0 0  
2018-06-23 05:00 52 36 43 | 000 0 0  
2018-06-23 04:50 52 36 42 | 346 1 3  
2018-06-23 04:30 53 36 41 | 346 0 0  
 
SIERRA CREST 8700 FT DATA:  
DATE TIME TEMP RH WIND  
DIR SPEED GUST  
2018-06-23 0600 51 52 060 11 15  
2018-06-23 0545 52 48 060 12 14  
2018-06-23 0530 52 48 065 13 16  
2018-06-23 0515 52 48 064 14 16  
 
RENO TAF FORECAST:  
KRNO 231120Z 2312/2412 01007KT P6SM SKC  
FM232000 04008KT P6SM FEW250  
FM240100 35010KT P6SM SKC  
FM240800 VRB04KT P6SM SKC  
 
CARSON CITY TAF FORECAST:  
KCXP 231120Z 2312/2412 VRB05KT P6SM SKC  
FM231900 05008KT P6SM FEW250  
FM240100 33010KT P6SM SKC  
FM240700 VRB04KT P6SM SKC  
 
OUTLOOK FOR THE RENO-CARSON CITY-MINDEN AREA:   
SUNDAY
 
SUNNY. HIGHS 89 TO 94. LIGHT WINDS BECOMING EAST AROUND  
10 MPH IN THE AFTERNOON.  
 
SUNRISE AND SUNSET  
JUNE 23 2018..........SUNRISE 533 AM PDT SUNSET 830 PM PDT  
JUNE 24 2018..........SUNRISE 533 AM PDT SUNSET 830 PM PDT  
 
CLICK HERE TO GO TO PREVIOUS BULLETINS.

The Nexlab NV Page
The Nexlab CA Page Main Text Page